Time;durP1;ratioP1;P1;durP2;ratioP2;P2;SDS_P1;SDS_P2;PMS_P1;PMS_P2;Temp;Humidity;BMP_temperature;BMP_pressure;BME280_temperature;BME280_humidity;BME280_pressure;Samples;Min_cycle;Max_cycle;Signal;HPM_P1;HPM_P2
2022/05/04 00:00:24;;;;;;;18.77;5.38;;;8.90;99.90;;;;;;5072170;28;20070;-90
2022/05/04 00:02:50;;;;;;;11.43;5.45;;;8.80;99.90;;;;;;5072865;28;20016;-89
2022/05/04 00:05:18;;;;;;;15.63;5.35;;;8.80;99.90;;;;;;5071163;28;20047;-90
2022/05/04 00:07:44;;;;;;;19.40;6.38;;;8.80;99.90;;;;;;5072834;28;20023;-91
2022/05/04 00:10:11;;;;;;;7.38;5.15;;;8.70;99.90;;;;;;5072559;28;20017;-90
2022/05/04 00:12:36;;;;;;;9.98;5.40;;;8.70;99.90;;;;;;5071438;28;20024;-91
2022/05/04 00:15:14;;;;;;;11.43;6.57;;;8.70;99.90;;;;;;5071532;28;20502;-91
2022/05/04 00:17:40;;;;;;;11.23;6.10;;;8.70;99.90;;;;;;5072712;28;20492;-90
2022/05/04 00:20:07;;;;;;;11.88;5.38;;;8.70;99.90;;;;;;5072603;28;20021;-90
2022/05/04 00:22:33;;;;;;;11.10;5.88;;;8.70;99.90;;;;;;5072345;28;20479;-90
2022/05/04 00:24:58;;;;;;;12.85;5.68;;;8.70;99.90;;;;;;5071309;28;20117;-91
2022/05/04 00:27:26;;;;;;;11.95;5.28;;;8.70;99.90;;;;;;5072870;28;20024;-91
2022/05/04 00:29:52;;;;;;;10.98;5.55;;;8.70;99.90;;;;;;5071234;28;20082;-91
2022/05/04 00:32:22;;;;;;;18.63;5.93;;;8.70;99.90;;;;;;5071148;28;20028;-90
2022/05/04 00:34:48;;;;;;;10.65;6.03;;;8.60;99.90;;;;;;5072389;28;20082;-90
2022/05/04 00:37:24;;;;;;;9.38;5.68;;;8.60;99.90;;;;;;5072276;28;20025;-90
2022/05/04 00:39:50;;;;;;;6.82;4.30;;;8.60;99.90;;;;;;5072393;28;20411;-89
2022/05/04 00:42:19;;;;;;;13.32;4.88;;;8.60;99.90;;;;;;5071033;28;20033;-90
2022/05/04 00:44:47;;;;;;;9.63;5.35;;;8.70;99.90;;;;;;5072269;28;20051;-91
2022/05/04 00:47:18;;;;;;;10.65;6.15;;;8.70;99.90;;;;;;5072285;28;20013;-90
2022/05/04 00:49:49;;;;;;;8.80;4.82;;;8.70;99.90;;;;;;5071317;28;20020;-90
2022/05/04 00:52:25;;;;;;;12.68;5.88;;;8.70;99.90;;;;;;5072402;28;20025;-90
2022/05/04 00:54:52;;;;;;;9.52;4.65;;;8.60;99.90;;;;;;5070941;28;20048;-91
2022/05/04 01:00:09;;;;;;;10.60;5.55;;;8.60;99.90;;;;;;5072482;28;20051;-91
2022/05/04 01:02:41;;;;;;;10.77;4.63;;;8.50;99.90;;;;;;5070805;28;20025;-90
2022/05/04 01:05:11;;;;;;;10.65;4.55;;;8.50;99.90;;;;;;5071885;28;20111;-90
2022/05/04 01:07:56;;;;;;;8.15;4.65;;;8.50;99.90;;;;;;5072189;28;20035;-90
2022/05/04 01:10:22;;;;;;;15.65;4.63;;;8.40;99.90;;;;;;5072848;28;20071;-90
2022/05/04 01:12:51;;;;;;;13.00;4.72;;;8.40;99.90;;;;;;5074500;28;20035;-90
2022/05/04 01:15:19;;;;;;;6.85;4.18;;;8.40;99.90;;;;;;5074649;28;20028;-90
2022/05/04 01:17:47;;;;;;;6.63;4.20;;;8.50;99.90;;;;;;5075908;28;20386;-90
2022/05/04 01:20:13;;;;;;;11.88;4.90;;;8.50;99.90;;;;;;5075472;28;20042;-90
2022/05/04 01:22:53;;;;;;;8.55;5.28;;;8.50;99.90;;;;;;5075520;28;20028;-91
2022/05/04 01:25:23;;;;;;;8.23;4.40;;;8.40;99.90;;;;;;5075345;28;20037;-89
2022/05/04 01:27:50;;;;;;;9.13;4.32;;;8.40;99.90;;;;;;5074375;28;20465;-90
2022/05/04 01:30:22;;;;;;;7.50;4.35;;;8.40;99.90;;;;;;5075581;28;20035;-90
2022/05/04 01:32:48;;;;;;;8.38;4.90;;;8.40;99.90;;;;;;5075458;28;20023;-90
2022/05/04 01:35:42;;;;;;;7.68;4.78;;;8.40;99.90;;;;;;5075010;28;20108;-90
2022/05/04 01:38:08;;;;;;;7.20;4.88;;;8.40;99.90;;;;;;5075390;28;20515;-90
2022/05/04 01:40:45;;;;;;;6.97;4.40;;;8.50;99.90;;;;;;5075326;28;20025;-90
2022/05/04 01:43:11;;;;;;;22.55;6.53;;;8.40;99.90;;;;;;5073816;28;20115;-90
2022/05/04 01:45:39;;;;;;;10.82;5.13;;;8.50;99.90;;;;;;5075376;28;20448;-90
2022/05/04 01:48:05;;;;;;;9.80;4.43;;;8.40;99.90;;;;;;5075375;28;20028;-89
2022/05/04 01:50:35;;;;;;;7.43;4.35;;;8.40;99.90;;;;;;5073633;28;20025;-90
2022/05/04 01:53:01;;;;;;;6.85;4.30;;;8.40;99.90;;;;;;5075286;28;20350;-90
2022/05/04 01:55:28;;;;;;;6.07;3.80;;;8.50;99.90;;;;;;5073851;28;20035;-90
2022/05/04 01:57:54;;;;;;;7.40;4.35;;;8.50;99.90;;;;;;5075203;28;20024;-90
2022/05/04 02:00:29;;;;;;;9.77;5.20;;;8.50;99.90;;;;;;5073759;28;20032;-90
2022/05/04 02:02:55;;;;;;;7.00;4.25;;;8.40;99.90;;;;;;5075007;28;20032;-90
2022/05/04 02:05:26;;;;;;;6.10;4.32;;;8.40;99.90;;;;;;5074473;28;20523;-90
2022/05/04 02:07:51;;;;;;;9.60;6.15;;;8.40;99.90;;;;;;5074780;28;20020;-90
2022/05/04 02:10:25;;;;;;;8.07;5.25;;;8.40;99.90;;;;;;5074998;28;20033;-90
2022/05/04 02:12:51;;;;;;;9.07;4.45;;;8.40;99.90;;;;;;5074598;28;20077;-90
2022/05/04 02:15:18;;;;;;;6.15;4.00;;;8.40;99.90;;;;;;5074667;28;20029;-90
2022/05/04 02:17:44;;;;;;;7.63;4.53;;;8.40;99.90;;;;;;5074780;28;20107;-90
2022/05/04 02:20:11;;;;;;;7.78;4.90;;;8.40;99.90;;;;;;5074343;28;20100;-89
2022/05/04 02:22:36;;;;;;;7.10;4.88;;;8.40;99.90;;;;;;5074485;28;20446;-91
2022/05/04 02:25:02;;;;;;;9.10;4.60;;;8.30;99.90;;;;;;5072654;28;20037;-89
2022/05/04 02:27:28;;;;;;;10.13;4.20;;;8.30;99.90;;;;;;5074543;28;20393;-90
2022/05/04 02:29:54;;;;;;;9.68;4.85;;;8.30;99.90;;;;;;5074453;28;20465;-90
2022/05/04 02:32:25;;;;;;;8.07;4.47;;;8.40;99.90;;;;;;5074570;28;20021;-90
2022/05/04 02:37:55;;;;;;;8.35;4.55;;;8.40;99.90;;;;;;5074358;28;20033;-90
2022/05/04 02:40:20;;;;;;;6.68;4.40;;;8.50;99.90;;;;;;5074280;28;20029;-90
2022/05/04 02:42:50;;;;;;;9.00;4.53;;;8.50;99.90;;;;;;5072517;28;20033;-90
2022/05/04 02:45:16;;;;;;;10.10;4.90;;;8.50;99.90;;;;;;5072446;28;20024;-90
2022/05/04 02:48:08;;;;;;;6.18;4.90;;;8.50;99.90;;;;;;5074050;28;20085;-89
2022/05/04 02:50:35;;;;;;;5.10;3.63;;;8.60;99.90;;;;;;5072160;28;20475;-90
2022/05/04 02:53:11;;;;;;;9.35;4.53;;;8.60;99.90;;;;;;5072680;28;20070;-90
2022/05/04 02:55:37;;;;;;;8.40;4.80;;;8.60;99.90;;;;;;5072671;28;20028;-90
2022/05/04 02:58:06;;;;;;;10.27;4.38;;;8.50;99.90;;;;;;5073957;28;20452;-90
2022/05/04 03:00:32;;;;;;;6.90;4.65;;;8.50;99.90;;;;;;5073692;28;20476;-89
2022/05/04 03:02:58;;;;;;;6.45;4.05;;;8.40;99.90;;;;;;5073771;28;20103;-90
2022/05/04 03:05:24;;;;;;;11.00;5.68;;;8.40;99.90;;;;;;5073401;28;20033;-90
2022/05/04 03:07:56;;;;;;;12.18;7.47;;;8.30;99.90;;;;;;5073594;28;20039;-90
2022/05/04 03:10:21;;;;;;;13.15;8.18;;;8.20;99.90;;;;;;5073646;28;20109;-90
2022/05/04 03:13:06;;;;;;;23.33;11.18;;;8.10;99.90;;;;;;5072359;28;20100;-89
2022/05/04 03:15:32;;;;;;;17.35;11.60;;;8.00;99.90;;;;;;5072126;28;20115;-90
2022/05/04 03:18:12;;;;;;;22.65;12.07;;;8.10;99.90;;;;;;5072208;28;20115;-90
2022/05/04 03:20:37;;;;;;;20.85;11.68;;;7.90;99.90;;;;;;5071906;28;20024;-90
2022/05/04 03:23:04;;;;;;;24.42;11.65;;;7.90;99.90;;;;;;5073485;28;20029;-90
2022/05/04 03:25:29;;;;;;;22.52;10.25;;;7.90;99.90;;;;;;5071696;28;20083;-90
2022/05/04 03:27:59;;;;;;;14.15;7.97;;;7.80;99.90;;;;;;5072131;28;20024;-90
2022/05/04 03:30:25;;;;;;;21.88;6.70;;;7.70;99.90;;;;;;5072004;28;20358;-89
2022/05/04 03:32:51;;;;;;;16.98;6.93;;;7.60;99.90;;;;;;5072816;28;20074;-89
2022/05/04 03:35:17;;;;;;;13.63;6.68;;;7.60;99.90;;;;;;5071348;28;20033;-89
2022/05/04 03:37:54;;;;;;;14.20;5.90;;;7.60;99.90;;;;;;5071898;28;20031;-89
2022/05/04 03:40:19;;;;;;;12.77;5.82;;;7.60;99.90;;;;;;5071778;28;20020;-89
2022/05/04 03:42:55;;;;;;;13.73;6.07;;;7.60;99.90;;;;;;5073031;28;20377;-90
2022/05/04 03:45:21;;;;;;;6.45;4.82;;;7.60;99.90;;;;;;5072986;28;20048;-89
2022/05/04 03:47:49;;;;;;;12.35;5.25;;;7.60;99.90;;;;;;5072959;28;20043;-89
2022/05/04 03:50:14;;;;;;;16.08;6.25;;;7.60;99.90;;;;;;5072589;28;20103;-89
2022/05/04 03:52:40;;;;;;;14.00;5.60;;;7.60;99.90;;;;;;5071663;28;20417;-90
2022/05/04 03:55:06;;;;;;;9.82;5.38;;;7.60;99.90;;;;;;5072831;28;20021;-90
2022/05/04 03:57:48;;;;;;;14.93;6.18;;;7.60;99.90;;;;;;5072808;28;20025;-89
2022/05/04 04:00:14;;;;;;;17.58;6.68;;;7.70;99.90;;;;;;5071507;28;20027;-89
2022/05/04 04:02:55;;;;;;;12.02;6.10;;;7.70;99.90;;;;;;5071341;28;20493;-89
2022/05/04 04:05:22;;;;;;;9.25;5.55;;;7.70;99.90;;;;;;5072373;28;20031;-89
2022/05/04 04:07:50;;;;;;;5.35;4.53;;;7.80;99.90;;;;;;5072865;28;20028;-89
2022/05/04 04:10:16;;;;;;;11.48;6.40;;;7.80;99.90;;;;;;5071448;28;20157;-89
2022/05/04 04:12:45;;;;;;;12.38;6.18;;;7.90;99.90;;;;;;5072638;28;20091;-89
2022/05/04 04:15:11;;;;;;;9.82;5.75;;;8.00;99.90;;;;;;5072538;28;20056;-89
2022/05/04 04:17:47;;;;;;;10.98;5.15;;;8.00;99.90;;;;;;5071527;28;20025;-90
2022/05/04 04:23:01;;;;;;;20.85;7.00;;;8.10;99.90;;;;;;5072591;28;20051;-89
2022/05/04 04:25:34;;;;;;;8.40;5.97;;;8.00;99.90;;;;;;5072328;28;20041;-89
2022/05/04 04:28:00;;;;;;;13.52;6.30;;;7.90;99.90;;;;;;5072491;28;20028;-89
2022/05/04 04:30:49;;;;;;;10.85;5.63;;;7.90;99.90;;;;;;5072621;28;20016;-89
2022/05/04 04:33:15;;;;;;;17.58;6.25;;;7.80;99.90;;;;;;5071205;28;20047;-90
2022/05/04 04:35:45;;;;;;;12.52;5.65;;;7.80;99.90;;;;;;5072189;28;20021;-89
2022/05/04 04:38:11;;;;;;;10.30;6.28;;;7.80;99.90;;;;;;5072254;28;20035;-89
2022/05/04 04:40:42;;;;;;;11.52;6.47;;;7.80;99.90;;;;;;5072412;28;20524;-89
2022/05/04 04:43:07;;;;;;;9.15;5.10;;;7.80;99.90;;;;;;5072316;28;20021;-89
2022/05/04 04:45:33;;;;;;;11.32;5.20;;;7.80;99.90;;;;;;5073070;28;20025;-90
2022/05/04 04:47:59;;;;;;;14.43;5.75;;;7.90;99.90;;;;;;5076361;28;20024;-90
2022/05/04 04:50:24;;;;;;;10.60;5.32;;;7.90;99.90;;;;;;5076033;28;20384;-89
2022/05/04 04:52:50;;;;;;;10.43;6.03;;;8.00;99.90;;;;;;5076215;28;20021;-89
2022/05/04 04:55:15;;;;;;;11.68;6.55;;;8.00;99.90;;;;;;5076193;28;20036;-89
2022/05/04 04:57:41;;;;;;;12.10;6.00;;;8.00;99.90;;;;;;5076153;28;20032;-89
2022/05/04 05:00:25;;;;;;;15.77;7.65;;;8.10;99.90;;;;;;5076222;28;20429;-89
2022/05/04 05:02:51;;;;;;;25.92;8.07;;;8.10;99.90;;;;;;5075954;28;20101;-89
2022/05/04 05:05:39;;;;;;;18.15;8.02;;;8.20;99.90;;;;;;5074486;28;20473;-90
2022/05/04 05:08:05;;;;;;;26.38;8.13;;;8.30;99.90;;;;;;5075941;28;20021;-90
2022/05/04 05:10:36;;;;;;;15.15;7.70;;;8.30;99.90;;;;;;5074743;28;20025;-90
2022/05/04 05:13:01;;;;;;;30.75;9.07;;;8.40;99.90;;;;;;5075706;28;20030;-90
2022/05/04 05:18:12;;;;;;;29.47;8.80;;;8.60;99.90;;;;;;5075870;28;20108;-90
2022/05/04 05:20:39;;;;;;;31.05;8.88;;;8.70;99.90;;;;;;5075434;28;20055;-88
2022/05/04 05:23:04;;;;;;;26.17;7.55;;;8.70;99.90;;;;;;5075694;28;20107;-89
2022/05/04 05:25:31;;;;;;;20.42;8.38;;;8.80;99.90;;;;;;5073966;28;20127;-90
2022/05/04 05:28:14;;;;;;;27.02;8.45;;;8.80;99.90;;;;;;5075568;28;20082;-90
2022/05/04 05:30:41;;;;;;;23.88;8.40;;;8.90;99.90;;;;;;5075078;28;20532;-89
2022/05/04 05:33:07;;;;;;;18.65;7.63;;;8.90;99.90;;;;;;5075098;28;20024;-90
2022/05/04 05:35:32;;;;;;;19.85;8.13;;;8.90;99.90;;;;;;5075172;28;20433;-90
2022/05/04 05:37:59;;;;;;;24.27;7.88;;;8.90;99.90;;;;;;5075128;28;20035;-90
2022/05/04 05:40:24;;;;;;;17.42;7.10;;;9.00;99.90;;;;;;5075370;28;20024;-90
2022/05/04 05:42:54;;;;;;;16.23;6.45;;;9.00;99.90;;;;;;5073963;28;20439;-90
2022/05/04 05:45:20;;;;;;;22.30;8.73;;;9.10;99.90;;;;;;5073951;28;20025;-90
2022/05/04 05:47:48;;;;;;;19.58;8.05;;;9.10;99.90;;;;;;5075352;28;20020;-89
2022/05/04 05:50:14;;;;;;;29.45;7.80;;;9.20;99.90;;;;;;5075084;28;20024;-90
2022/05/04 05:52:41;;;;;;;13.20;6.20;;;9.30;99.90;;;;;;5075077;28;20437;-89
2022/05/04 05:55:07;;;;;;;14.30;5.82;;;9.20;99.90;;;;;;5073826;28;20029;-90
2022/05/04 05:57:43;;;;;;;17.60;6.68;;;9.30;99.90;;;;;;5074656;28;20073;-90
2022/05/04 06:00:10;;;;;;;32.13;7.50;;;9.30;99.90;;;;;;5075168;28;20044;-90
2022/05/04 06:02:37;;;;;;;21.73;7.38;;;9.40;99.90;;;;;;5074983;28;20380;-90
2022/05/04 06:05:04;;;;;;;18.90;6.75;;;9.40;99.90;;;;;;5074734;28;20024;-89
2022/05/04 06:07:32;;;;;;;25.05;6.22;;;9.40;99.90;;;;;;5074847;28;20472;-90
2022/05/04 06:09:57;;;;;;;25.20;7.10;;;9.40;99.90;;;;;;5074861;28;20197;-90
2022/05/04 06:12:23;;;;;;;22.75;7.38;;;9.40;99.90;;;;;;5073611;28;20115;-90
2022/05/04 06:14:48;;;;;;;16.42;5.55;;;9.40;99.90;;;;;;5073287;28;20380;-90
2022/05/04 06:17:15;;;;;;;12.73;5.60;;;9.50;99.90;;;;;;5074701;28;20033;-90
2022/05/04 06:19:41;;;;;;;29.10;7.72;;;9.50;99.90;;;;;;5073055;28;20056;-90
2022/05/04 06:22:13;;;;;;;16.13;6.55;;;9.50;99.90;;;;;;5074818;28;20497;-90
2022/05/04 06:24:39;;;;;;;28.67;7.72;;;9.60;99.90;;;;;;5074273;28;20041;-89
2022/05/04 06:27:04;;;;;;;33.75;7.55;;;9.70;99.90;;;;;;5073302;28;20028;-90
2022/05/04 06:35:12;;;;;;;28.60;8.27;;;9.80;99.90;;;;;;5074440;28;20040;-90
2022/05/04 06:37:39;;;;;;;27.35;7.55;;;9.90;99.90;;;;;;5074221;28;20059;-91
2022/05/04 06:40:06;;;;;;;20.67;5.95;;;9.90;99.90;;;;;;5074552;28;20093;-90
2022/05/04 06:42:32;;;;;;;25.70;6.05;;;10.00;99.90;;;;;;5074317;28;20028;-90
2022/05/04 06:45:17;;;;;;;15.90;5.80;;;10.10;99.90;;;;;;5073176;28;20029;-89
2022/05/04 06:47:43;;;;;;;21.42;6.30;;;10.20;99.90;;;;;;5072872;28;20027;-90
2022/05/04 06:50:22;;;;;;;22.58;6.22;;;10.20;99.90;;;;;;5073797;28;20025;-90
2022/05/04 06:52:47;;;;;;;22.17;6.10;;;10.20;99.90;;;;;;5072919;28;20070;-90
2022/05/04 06:55:13;;;;;;;18.80;5.85;;;10.20;99.90;;;;;;5072689;28;20485;-90
2022/05/04 06:57:40;;;;;;;18.35;5.13;;;10.20;99.90;;;;;;5073922;28;20033;-90
2022/05/04 07:00:07;;;;;;;21.10;4.95;;;10.30;99.90;;;;;;5073970;28;20036;-90
2022/05/04 07:02:33;;;;;;;19.40;4.82;;;10.30;99.90;;;;;;5073801;28;20380;-90
2022/05/04 07:05:12;;;;;;;15.82;5.13;;;10.30;99.90;;;;;;5072082;28;20032;-90
2022/05/04 07:07:38;;;;;;;14.00;4.15;;;10.30;99.90;;;;;;5072070;28;20020;-91
2022/05/04 07:10:05;;;;;;;13.10;4.43;;;10.30;99.90;;;;;;5072013;28;20017;-88
2022/05/04 07:12:30;;;;;;;11.23;3.85;;;10.30;99.90;;;;;;5072652;28;20035;-88
2022/05/04 07:14:59;;;;;;;25.58;5.32;;;10.30;99.90;;;;;;5072344;28;20032;-88
2022/05/04 07:17:25;;;;;;;16.63;4.35;;;10.40;99.90;;;;;;5072324;28;20020;-88
2022/05/04 07:19:53;;;;;;;14.13;4.40;;;10.40;99.90;;;;;;5073276;28;20031;-88
2022/05/04 07:22:18;;;;;;;18.58;4.53;;;10.40;99.90;;;;;;5073370;28;20052;-88
2022/05/04 07:24:44;;;;;;;15.70;4.50;;;10.40;99.90;;;;;;5067949;28;20044;-88
2022/05/04 07:27:21;;;;;;;15.43;4.93;;;10.50;99.90;;;;;;5072196;28;20111;-88
2022/05/04 07:29:47;;;;;;;19.00;4.85;;;10.50;99.90;;;;;;5072171;28;20035;-88
2022/05/04 07:32:33;;;;;;;15.15;4.95;;;10.50;99.90;;;;;;5072177;28;20029;-88
2022/05/04 07:34:59;;;;;;;20.13;5.07;;;10.60;99.90;;;;;;5072927;28;20016;-88
2022/05/04 07:37:42;;;;;;;19.77;4.80;;;10.60;99.90;;;;;;5073262;28;20484;-88
2022/05/04 07:42:54;;;;;;;20.00;5.85;;;10.70;99.90;;;;;;5073378;28;20101;-88
2022/05/04 07:45:20;;;;;;;22.20;5.72;;;10.70;99.90;;;;;;5071736;28;20453;-88
2022/05/04 07:47:46;;;;;;;25.52;6.20;;;10.80;99.90;;;;;;5071830;28;20052;-88
2022/05/04 07:50:12;;;;;;;18.80;5.30;;;10.80;99.90;;;;;;5072756;28;20021;-88
2022/05/04 07:52:39;;;;;;;24.73;4.75;;;10.80;99.90;;;;;;5071600;28;20031;-89
2022/05/04 07:55:05;;;;;;;22.30;5.55;;;10.90;99.90;;;;;;5072946;28;20028;-89
2022/05/04 07:57:34;;;;;;;19.95;5.55;;;10.90;99.90;;;;;;5072827;28;20100;-89
2022/05/04 08:05:45;;;;;;;10.75;4.50;;;11.00;99.90;;;;;;5072524;28;20066;-88
2022/05/04 08:08:12;;;;;;;28.60;6.18;;;11.00;99.90;;;;;;5072845;28;20020;-89
2022/05/04 08:10:38;;;;;;;20.30;5.32;;;11.00;99.90;;;;;;5072651;28;20128;-89
2022/05/04 08:13:07;;;;;;;19.55;4.78;;;11.00;99.90;;;;;;5072905;28;20524;-89
2022/05/04 08:15:33;;;;;;;19.45;6.53;;;11.10;99.90;;;;;;5071537;28;20028;-89
2022/05/04 08:18:07;;;;;;;27.52;5.97;;;11.00;99.90;;;;;;5066713;28;20025;-88
2022/05/04 08:20:32;;;;;;;22.45;5.95;;;11.10;99.90;;;;;;5061990;28;20420;-89
2022/05/04 08:23:02;;;;;;;16.55;5.70;;;11.10;99.90;;;;;;5072715;28;20024;-91
2022/05/04 08:25:33;;;;;;;23.73;6.05;;;11.10;99.90;;;;;;5071179;28;20127;-89
2022/05/04 08:27:58;;;;;;;18.40;5.72;;;11.10;99.90;;;;;;5071020;28;20031;-89
2022/05/04 08:30:33;;;;;;;16.60;6.15;;;11.10;99.90;;;;;;5070989;28;20021;-89
2022/05/04 08:32:59;;;;;;;25.98;7.00;;;11.20;99.90;;;;;;5071217;28;20028;-90
2022/05/04 08:35:26;;;;;;;24.58;7.07;;;11.20;99.90;;;;;;5072173;28;20028;-88
2022/05/04 08:37:52;;;;;;;15.93;6.00;;;11.20;99.90;;;;;;5072629;28;20078;-89
2022/05/04 08:40:22;;;;;;;29.83;7.18;;;11.20;99.90;;;;;;5072602;28;20024;-89
2022/05/04 08:42:47;;;;;;;21.40;6.63;;;11.30;99.90;;;;;;5071188;28;20029;-88
2022/05/04 08:45:16;;;;;;;16.77;5.97;;;11.30;99.90;;;;;;5070997;28;20373;-89
2022/05/04 08:47:44;;;;;;;24.42;5.53;;;11.30;99.90;;;;;;5072482;28;20538;-89
2022/05/04 08:50:18;;;;;;;23.42;7.18;;;11.40;99.90;;;;;;5071249;28;20024;-89
2022/05/04 08:52:54;;;;;;;21.20;6.75;;;11.40;99.90;;;;;;5072325;28;20020;-89
2022/05/04 08:55:39;;;;;;;23.77;6.35;;;11.40;99.90;;;;;;5075408;28;20032;-90
2022/05/04 08:58:06;;;;;;;30.60;6.53;;;11.60;99.90;;;;;;5072442;28;20024;-89
2022/05/04 09:00:40;;;;;;;21.75;6.43;;;11.60;99.90;;;;;;5072365;28;20469;-90
2022/05/04 09:03:08;;;;;;;24.55;6.25;;;11.70;99.90;;;;;;5071325;28;20074;-93
2022/05/04 09:06:05;;;;;;;26.13;7.10;;;11.80;99.90;;;;;;5071277;28;20028;-89
2022/05/04 09:09:10;;;;;;;31.67;7.63;;;11.90;99.90;;;;;;5072592;28;20028;-89
2022/05/04 09:11:38;;;;;;;18.27;6.13;;;12.00;99.90;;;;;;5071178;28;20298;-91
2022/05/04 09:14:25;;;;;;;24.73;6.68;;;12.10;99.90;;;;;;5071082;28;20127;-90
2022/05/04 09:16:51;;;;;;;28.85;7.18;;;12.10;99.90;;;;;;5071137;28;20388;-89
2022/05/04 09:19:25;;;;;;;20.52;6.72;;;12.20;99.90;;;;;;5071931;28;20032;-90
2022/05/04 09:21:52;;;;;;;29.25;6.97;;;12.30;99.90;;;;;;5071474;28;20024;-90
2022/05/04 09:24:28;;;;;;;24.60;6.07;;;12.40;99.90;;;;;;5066574;28;20052;-90
2022/05/04 09:26:56;;;;;;;19.58;6.50;;;12.50;99.90;;;;;;5072381;28;20056;-90
2022/05/04 09:30:00;;;;;;;18.08;6.07;;;12.50;99.90;;;;;;5072513;28;20081;-90
2022/05/04 09:32:30;;;;;;;21.83;8.07;;;12.70;99.90;;;;;;5074024;28;20029;-90
2022/05/04 09:35:31;;;;;;;24.70;7.10;;;12.80;99.90;;;;;;5074015;28;20025;-90
2022/05/04 09:46:39;;;;;;;30.02;7.13;;;13.10;99.90;;;;;;5076269;28;20392;-91
2022/05/04 09:49:28;;;;;;;24.17;5.97;;;13.20;99.90;;;;;;5074213;28;20016;-90
2022/05/04 09:52:14;;;;;;;16.15;5.90;;;13.20;99.90;;;;;;5075687;28;20586;-89
2022/05/04 09:54:39;;;;;;;17.20;5.78;;;13.20;99.90;;;;;;5075530;28;20425;-89
2022/05/04 09:57:11;;;;;;;18.55;6.88;;;13.20;99.90;;;;;;5075268;28;20057;-90
2022/05/04 09:59:36;;;;;;;16.90;6.80;;;13.20;99.90;;;;;;5075433;28;20033;-90
2022/05/04 10:02:57;;;;;;;27.23;7.25;;;13.30;99.90;;;;;;5075449;28;20021;-91
2022/05/04 10:05:23;;;;;;;24.25;7.07;;;13.40;99.90;;;;;;5074883;28;20052;-88
2022/05/04 10:07:57;;;;;;;14.18;6.00;;;13.40;99.90;;;;;;5075472;28;20065;-90
2022/05/04 10:10:24;;;;;;;18.98;6.80;;;13.40;99.90;;;;;;5074378;28;20029;-89
2022/05/04 10:12:58;;;;;;;26.23;7.65;;;13.40;99.90;;;;;;5074259;28;20092;-90
2022/05/04 10:15:25;;;;;;;18.75;7.60;;;13.50;99.90;;;;;;5074997;28;20024;-91
2022/05/04 10:18:30;;;;;;;23.25;7.07;;;13.60;99.90;;;;;;5074250;28;20071;-90
2022/05/04 10:21:00;;;;;;;27.40;7.20;;;13.70;99.90;;;;;;5074667;28;20032;-91
2022/05/04 10:23:37;;;;;;;15.45;6.97;;;13.80;99.90;;;;;;5075304;28;20031;-90
2022/05/04 10:26:04;;;;;;;24.67;6.85;;;13.80;99.90;;;;;;5074641;28;20040;-90
2022/05/04 10:28:36;;;;;;;26.30;6.88;;;14.00;99.90;;;;;;5073935;28;20025;-90
2022/05/04 10:31:12;;;;;;;21.60;6.78;;;14.10;99.90;;;;;;5073558;28;20090;-90
2022/05/04 10:33:38;;;;;;;26.30;7.57;;;14.20;99.90;;;;;;5074411;28;20124;-90
2022/05/04 10:36:18;;;;;;;25.73;7.55;;;14.30;99.90;;;;;;5073401;28;20477;-91
2022/05/04 10:38:45;;;;;;;22.92;7.18;;;14.50;99.90;;;;;;5074093;28;20074;-91
2022/05/04 10:41:33;;;;;;;14.73;6.30;;;14.60;99.90;;;;;;5073633;28;20025;-90
2022/05/04 10:43:59;;;;;;;21.33;6.50;;;14.70;99.90;;;;;;5073398;28;20115;-90
2022/05/04 10:46:25;;;;;;;20.58;7.03;;;14.80;99.90;;;;;;5073438;28;20120;-92
2022/05/04 10:48:59;;;;;;;22.75;7.88;;;15.00;99.90;;;;;;5073490;28;20443;-92
2022/05/04 10:51:27;;;;;;;16.33;5.43;;;15.10;99.90;;;;;;5074495;28;20354;-91
2022/05/04 10:54:18;;;;;;;24.75;5.88;;;15.10;99.90;;;;;;5073752;28;20059;-92
2022/05/04 10:56:50;;;;;;;27.35;6.22;;;15.10;99.90;;;;;;5074259;28;20028;-92
2022/05/04 10:59:31;;;;;;;19.77;6.85;;;15.20;99.90;;;;;;5074505;28;20472;-92
2022/05/04 11:02:04;;;;;;;23.80;7.00;;;15.20;99.90;;;;;;5074286;28;20036;-92
2022/05/04 11:11:52;;;;;;;23.17;7.05;;;15.40;99.90;;;;;;5075418;28;20023;-93
2022/05/04 11:14:22;;;;;;;15.63;5.90;;;15.50;99.90;;;;;;5074375;28;20021;-92
2022/05/04 11:16:57;;;;;;;21.67;6.63;;;15.60;99.90;;;;;;5073602;28;20120;-93
2022/05/04 11:19:24;;;;;;;21.85;6.22;;;15.60;99.90;;;;;;5073725;28;20077;-94
2022/05/04 11:21:59;;;;;;;18.02;6.55;;;15.60;99.90;;;;;;5073951;28;20043;-92
2022/05/04 11:24:26;;;;;;;22.98;6.35;;;15.70;99.90;;;;;;5073551;28;20051;-93
2022/05/04 11:27:08;;;;;;;19.20;6.05;;;15.90;99.90;;;;;;5073662;28;20052;-93
2022/05/04 11:29:33;;;;;;;24.30;7.05;;;16.00;99.90;;;;;;5074833;28;20024;-92
2022/05/04 11:32:52;;;;;;;26.00;6.70;;;16.00;99.90;;;;;;5074585;28;20028;-94
2022/05/04 11:35:38;;;;;;;23.48;6.82;;;16.00;99.90;;;;;;5074200;28;20028;-93
2022/05/04 11:38:04;;;;;;;15.73;6.68;;;16.10;99.90;;;;;;5074002;28;20020;-94
2022/05/04 11:41:00;;;;;;;19.10;6.70;;;16.10;99.90;;;;;;5073762;28;20024;-94
2022/05/04 11:43:27;;;;;;;24.40;6.80;;;16.20;99.90;;;;;;5074419;28;20028;-94
2022/05/04 11:45:56;;;;;;;15.95;6.03;;;16.30;99.90;;;;;;5074152;28;20032;-94
2022/05/04 11:52:14;;;;;;;26.67;6.53;;;16.30;99.90;;;;;;5075639;28;20085;-92
2022/05/04 11:54:42;;;;;;;31.27;7.05;;;16.40;99.90;;;;;;5073037;28;20380;-92
2022/05/04 12:00:33;;;;;;;24.35;7.15;;;16.50;99.90;;;;;;5074897;28;20024;-93
2022/05/04 12:03:12;;;;;;;14.68;7.00;;;16.40;99.90;;;;;;5073479;28;20028;-93
2022/05/04 12:05:39;;;;;;;17.35;7.35;;;16.40;99.90;;;;;;5073307;28;20028;-93
2022/05/04 12:08:06;;;;;;;17.05;6.85;;;16.40;99.90;;;;;;5073279;28;20027;-93
2022/05/04 12:14:44;;;;;;;22.00;7.97;;;16.30;99.90;;;;;;5074859;28;20078;-94
2022/05/04 12:17:09;;;;;;;13.35;6.15;;;16.30;99.90;;;;;;5073066;28;20020;-93
2022/05/04 12:19:48;;;;;;;31.35;8.30;;;16.20;99.90;;;;;;5072886;28;20468;-92
2022/05/04 12:22:14;;;;;;;22.63;8.60;;;16.20;99.90;;;;;;5074168;28;20023;-95
2022/05/04 12:25:05;;;;;;;21.92;7.63;;;16.20;99.90;;;;;;5071011;28;20036;-93
2022/05/04 12:27:35;;;;;;;20.67;8.77;;;16.30;99.90;;;;;;5073309;28;20059;-93
2022/05/04 12:33:37;;;;;;;18.00;8.23;;;16.60;99.90;;;;;;5074139;28;20023;-93
2022/05/04 12:36:07;;;;;;;15.95;7.30;;;16.80;99.90;;;;;;5073059;28;20108;-94
2022/05/04 12:42:41;;;;;;;14.88;8.27;;;16.90;99.90;;;;;;5074272;28;20126;-94
2022/05/04 12:45:48;;;;;;;24.70;9.20;;;17.00;99.90;;;;;;5073516;28;20025;-93
2022/05/04 12:48:13;;;;;;;18.27;7.63;;;17.00;99.90;;;;;;5072807;28;20492;-93
2022/05/04 12:50:39;;;;;;;22.55;8.93;;;16.90;99.90;;;;;;5072427;28;20028;-94
2022/05/04 12:53:32;;;;;;;17.63;7.57;;;16.90;99.90;;;;;;5072758;28;20431;-94
2022/05/04 12:58:54;;;;;;;18.67;7.38;;;16.80;99.90;;;;;;5074226;28;20032;-93
2022/05/04 13:01:26;;;;;;;15.77;7.43;;;16.80;99.90;;;;;;5072718;28;20035;-94
2022/05/04 13:03:56;;;;;;;13.55;6.20;;;16.80;99.90;;;;;;5072571;28;20025;-95
2022/05/04 13:06:22;;;;;;;17.80;6.75;;;16.70;99.90;;;;;;5074032;28;20058;-94
2022/05/04 13:08:48;;;;;;;21.23;7.85;;;16.80;99.90;;;;;;5076338;28;20083;-92
2022/05/04 13:14:37;;;;;;;15.88;6.55;;;16.80;99.90;;;;;;5077564;28;20031;-93
2022/05/04 13:17:19;;;;;;;27.58;8.48;;;16.80;99.90;;;;;;5076456;28;20024;-92
2022/05/04 13:19:45;;;;;;;14.23;6.43;;;16.80;99.90;;;;;;5077759;28;20012;-94
2022/05/04 13:22:10;;;;;;;18.80;7.85;;;16.90;99.90;;;;;;5077064;28;20025;-93
2022/05/04 13:27:58;;;;;;;22.52;6.70;;;17.00;99.90;;;;;;5067091;28;20429;-94
2022/05/04 13:30:45;;;;;;;11.95;6.57;;;17.20;99.90;;;;;;5076550;28;20024;-94
2022/05/04 13:33:11;;;;;;;14.10;6.15;;;17.20;99.90;;;;;;5076815;28;20025;-95
2022/05/04 13:39:22;;;;;;;11.07;6.32;;;17.20;99.90;;;;;;5078584;28;20368;-96
2022/05/04 13:41:51;;;;;;;14.65;6.88;;;17.20;99.90;;;;;;5076808;28;20103;-95
2022/05/04 13:44:17;;;;;;;19.13;6.53;;;17.20;99.90;;;;;;5077494;28;20024;-94
2022/05/04 13:46:49;;;;;;;17.67;6.85;;;17.20;99.90;;;;;;5079206;28;20353;-93
2022/05/04 13:49:15;;;;;;;16.13;6.90;;;17.20;99.90;;;;;;5076951;28;20078;-94
2022/05/04 13:57:47;;;;;;;14.85;6.03;;;17.20;99.90;;;;;;5078216;28;20027;-93
2022/05/04 14:03:35;;;;;;;19.77;6.32;;;17.20;99.90;;;;;;5077978;28;20027;-94
2022/05/04 14:09:22;;;;;;;18.77;6.88;;;17.00;99.90;;;;;;5077729;28;20082;-92
2022/05/04 14:11:50;;;;;;;18.05;7.18;;;17.10;99.90;;;;;;5075477;28;20020;-94
2022/05/04 14:17:00;;;;;;;11.25;5.80;;;17.10;99.90;;;;;;5076379;28;20396;-93
2022/05/04 14:19:25;;;;;;;14.32;6.60;;;17.10;99.90;;;;;;5075833;28;20029;-95
2022/05/04 14:22:10;;;;;;;21.77;6.88;;;17.20;99.90;;;;;;5076451;28;20093;-93
2022/05/04 14:24:36;;;;;;;15.02;6.55;;;17.10;99.90;;;;;;5075675;28;20082;-94
2022/05/04 14:27:03;;;;;;;12.23;6.45;;;17.10;99.90;;;;;;5075618;28;20481;-93
2022/05/04 14:29:29;;;;;;;17.50;6.38;;;17.20;99.90;;;;;;5075778;28;20043;-93